Mintlaw, United Kingdom
Current Conditions -  °F | °C
As of 8:20 AM on Friday 19 Dec 2014 (Local Time) from EGPD Reporting Station
Clear Clear  
Wind Chill: 30°   Ceiling: Unl
Heat Index: 37°   Visibility: 6mi
Dew Point: 30°   Wind: 10mph
Humidity: 75%   Direction: 260°W
Pressure: 29.38"   Gusts: NA
Location:  57.52°N, 2°W
Report Text: EGPD 190820Z 26009KT CAVOK 03/M01 Q0995 NOSIG
Loading
Personal Weather Stations






























Interactive Weather Map New forecast layout! Learn more

10-Day Weather Forecast

Advertisements
Track Severe Weather on mobile